createdAt,value
2023-01-30T00:05:32.235Z,8.20
2023-01-30T00:11:28.765Z,8.10
2023-01-30T00:17:23.382Z,8.00
2023-01-30T00:23:41.946Z,8.10
2023-01-30T00:30:03.600Z,8.10
2023-01-30T00:35:58.149Z,8.10
2023-01-30T00:42:11.169Z,8.10
2023-01-30T00:48:29.664Z,8.10
2023-01-30T00:54:48.106Z,8.10
2023-01-30T01:00:42.510Z,8.10
2023-01-30T01:06:37.776Z,8.10
2023-01-30T01:13:08.310Z,8.10
2023-01-30T01:19:26.700Z,8.10
2023-01-30T01:25:22.348Z,8.00
2023-01-30T01:31:17.560Z,8.00
2023-01-30T01:37:36.191Z,7.90
2023-01-30T01:43:57.596Z,7.90
2023-01-30T01:49:51.931Z,7.80
2023-01-30T01:55:47.458Z,7.80
2023-01-30T02:02:11.122Z,7.80
2023-01-30T02:08:37.980Z,7.90
2023-01-30T02:14:32.893Z,7.90
2023-01-30T02:21:09.035Z,7.90
2023-01-30T02:27:46.860Z,8.00
2023-01-30T02:34:07.970Z,8.00
2023-01-30T02:40:08.553Z,8.00
2023-01-30T02:46:18.768Z,8.10
2023-01-30T02:52:37.521Z,8.10
2023-01-30T02:58:56.770Z,8.10
2023-01-30T03:05:05.337Z,8.10
2023-01-30T03:11:03.961Z,8.10
2023-01-30T03:17:34.604Z,8.20
2023-01-30T03:23:53.029Z,8.10
2023-01-30T03:29:47.436Z,8.10
2023-01-30T03:35:43.323Z,8.10
2023-01-30T03:42:01.853Z,8.20
2023-01-30T03:48:20.239Z,8.20
2023-01-30T03:54:14.641Z,8.10
2023-01-30T04:00:09.703Z,8.10
2023-01-30T04:06:28.214Z,8.20
2023-01-30T04:12:46.893Z,8.30
2023-01-30T04:18:41.473Z,8.20
2023-01-30T04:24:35.915Z,8.20
2023-01-30T04:30:55.519Z,8.20
2023-01-30T04:37:13.914Z,8.20
2023-01-30T04:43:08.284Z,8.20
2023-01-30T04:49:02.771Z,8.20
2023-01-30T04:55:21.293Z,8.30
2023-01-30T05:01:39.671Z,8.30
2023-01-30T05:07:34.027Z,8.30
2023-01-30T05:13:28.502Z,8.40
2023-01-30T05:19:59.001Z,8.40
2023-01-30T05:26:17.426Z,8.50
2023-01-30T05:32:14.831Z,8.50
2023-01-30T05:38:09.292Z,8.40
2023-01-30T05:44:27.806Z,8.40
2023-01-30T05:50:46.276Z,8.40
2023-01-30T05:56:40.633Z,8.30
2023-01-30T06:02:35.126Z,8.20
2023-01-30T06:08:54.520Z,8.40
2023-01-30T06:15:12.880Z,8.40
2023-01-30T06:21:07.342Z,8.50
2023-01-30T06:27:01.836Z,8.40
2023-01-30T06:33:20.434Z,8.40
2023-01-30T06:39:38.844Z,8.40
2023-01-30T06:45:33.240Z,8.20
2023-01-30T06:51:27.766Z,8.10
2023-01-30T06:57:46.416Z,8.10
2023-01-30T07:04:04.912Z,8.00
2023-01-30T07:10:07.945Z,7.90
2023-01-30T07:16:03.637Z,8.00
2023-01-30T07:22:34.138Z,8.00
2023-01-30T07:28:52.524Z,8.00
2023-01-30T07:34:47.272Z,8.00
2023-01-30T07:40:42.759Z,8.00
2023-01-30T07:47:01.554Z,8.00
2023-01-30T07:53:20.010Z,8.00
2023-01-30T07:59:15.377Z,8.00
2023-01-30T08:05:10.043Z,8.00
2023-01-30T08:11:29.610Z,8.00
2023-01-30T08:17:55.310Z,8.10
2023-01-30T08:23:49.743Z,8.10
2023-01-30T08:29:45.293Z,8.10
2023-01-30T08:36:04.280Z,8.10
2023-01-30T08:42:22.654Z,8.20
2023-01-30T08:48:19.566Z,8.10
2023-01-30T08:54:14.374Z,8.20
2023-01-30T09:00:32.994Z,8.30
2023-01-30T09:06:52.653Z,8.30
2023-01-30T09:12:47.044Z,8.40
2023-01-30T09:18:42.316Z,8.40
2023-01-30T09:25:12.917Z,8.50
2023-01-30T09:31:31.491Z,8.50
2023-01-30T09:37:26.974Z,8.50
2023-01-30T09:43:53.778Z,8.50
2023-01-30T09:50:38.273Z,8.60
2023-01-30T09:56:58.685Z,8.80
2023-01-30T10:03:05.115Z,8.70
2023-01-30T10:09:07.784Z,8.60
2023-01-30T10:15:29.487Z,8.80
2023-01-30T10:22:06.458Z,9.00
2023-01-30T10:28:05.363Z,9.10
2023-01-30T10:34:01.277Z,9.30
2023-01-30T10:40:30.799Z,9.30
2023-01-30T10:46:59.532Z,9.30
2023-01-30T10:52:59.875Z,9.30
2023-01-30T10:59:21.550Z,9.30
2023-01-30T11:05:53.935Z,9.20
2023-01-30T11:12:12.547Z,9.30
2023-01-30T11:18:40.408Z,9.20
2023-01-30T11:24:23.804Z,9.20
2023-01-30T11:30:58.772Z,9.30
2023-01-30T11:37:25.538Z,9.20
2023-01-30T11:43:21.921Z,8.90
2023-01-30T11:49:33.114Z,8.90
2023-01-30T11:56:04.175Z,9.00
2023-01-30T12:02:31.982Z,8.90
2023-01-30T12:08:41.105Z,8.80
2023-01-30T12:14:45.752Z,8.80
2023-01-30T12:21:17.640Z,8.80
2023-01-30T12:27:55.170Z,8.90
2023-01-30T12:33:49.527Z,8.90
2023-01-30T12:40:05.218Z,8.90
2023-01-30T12:47:01.205Z,9.00
2023-01-30T12:53:32.982Z,8.90
2023-01-30T12:59:37.404Z,8.90
2023-01-30T13:05:56.243Z,8.90
2023-01-30T13:12:36.856Z,9.00
2023-01-30T13:19:02.952Z,9.00
2023-01-30T13:24:57.304Z,9.10
2023-01-30T13:30:51.933Z,9.10
2023-01-30T13:37:22.543Z,9.20
2023-01-30T13:43:42.154Z,9.30
2023-01-30T13:49:42.352Z,9.40
2023-01-30T13:55:46.068Z,9.50
2023-01-30T14:02:09.556Z,9.80
2023-01-30T14:08:28.721Z,9.80
2023-01-30T14:14:24.077Z,9.80
2023-01-30T14:20:20.435Z,9.70
2023-01-30T14:26:48.152Z,9.60
2023-01-30T14:33:21.776Z,9.80
2023-01-30T14:39:34.828Z,9.50
2023-01-30T14:46:02.520Z,9.50
2023-01-30T14:52:34.870Z,9.80
2023-01-30T14:58:59.242Z,10.00
2023-01-30T15:04:53.616Z,9.90
2023-01-30T15:11:12.394Z,10.20
2023-01-30T15:18:08.399Z,10.20
2023-01-30T15:24:27.267Z,10.00
2023-01-30T15:30:22.110Z,9.30
2023-01-30T15:36:30.316Z,8.90
2023-01-30T15:43:00.814Z,8.70
2023-01-30T15:49:26.261Z,8.70
2023-01-30T15:55:22.805Z,8.50
2023-01-30T16:01:21.397Z,8.50
2023-01-30T16:07:40.004Z,8.50
2023-01-30T16:13:58.401Z,8.50
2023-01-30T16:19:52.771Z,8.50
2023-01-30T16:25:47.667Z,8.50
2023-01-30T16:32:12.586Z,8.50
2023-01-30T16:38:37.797Z,8.50
2023-01-30T16:44:32.253Z,8.40
2023-01-30T16:50:26.834Z,8.40
2023-01-30T16:56:47.697Z,8.40
2023-01-30T17:03:07.120Z,8.40
2023-01-30T17:09:02.413Z,8.20
2023-01-30T17:15:12.469Z,8.30
2023-01-30T17:21:48.861Z,8.20
2023-01-30T17:28:08.324Z,8.20
2023-01-30T17:34:02.763Z,8.20
2023-01-30T17:39:57.321Z,8.30
2023-01-30T17:46:41.069Z,8.40
2023-01-30T17:52:59.533Z,8.40
2023-01-30T17:58:53.905Z,8.30
2023-01-30T18:04:48.384Z,8.40
2023-01-30T18:11:09.314Z,8.40
2023-01-30T18:17:28.556Z,8.50
2023-01-30T18:23:22.960Z,8.50
2023-01-30T18:29:17.511Z,8.50
2023-01-30T18:35:38.089Z,8.60
2023-01-30T18:41:56.450Z,8.60
2023-01-30T18:47:52.488Z,8.60
2023-01-30T18:53:48.302Z,8.50
2023-01-30T19:00:07.485Z,8.60
2023-01-30T19:06:25.931Z,8.60
2023-01-30T19:12:39.475Z,8.50
2023-01-30T19:18:34.851Z,8.40
2023-01-30T19:24:53.371Z,8.40
2023-01-30T19:31:16.023Z,8.30
2023-01-30T19:37:10.557Z,8.20
2023-01-30T19:43:10.939Z,8.00
2023-01-30T19:49:42.360Z,8.00
2023-01-30T19:56:00.753Z,7.90
2023-01-30T20:01:55.171Z,7.90
2023-01-30T20:07:50.155Z,7.90
2023-01-30T20:14:09.545Z,7.80
2023-01-30T20:20:31.304Z,7.70
2023-01-30T20:26:26.594Z,7.70
2023-01-30T20:32:21.125Z,7.70
2023-01-30T20:38:40.789Z,7.70
2023-01-30T20:44:59.222Z,7.60
2023-01-30T20:50:53.654Z,7.60
2023-01-30T20:56:49.608Z,7.40
2023-01-30T21:03:08.085Z,7.30
2023-01-30T21:09:26.475Z,7.20
2023-01-30T21:15:21.153Z,7.20
2023-01-30T21:21:37.364Z,7.20
2023-01-30T21:27:55.877Z,7.10
2023-01-30T21:34:14.396Z,7.20
2023-01-30T21:40:27.995Z,7.20
2023-01-30T21:46:22.698Z,7.20
2023-01-30T21:52:53.311Z,7.30
2023-01-30T21:59:11.987Z,7.30
2023-01-30T22:05:06.701Z,7.10
2023-01-30T22:11:11.483Z,7.10
2023-01-30T22:17:29.996Z,7.10
2023-01-30T22:23:48.916Z,7.10
2023-01-30T22:29:43.319Z,6.90
2023-01-30T22:35:38.297Z,6.90
2023-01-30T22:41:56.897Z,6.80
2023-01-30T22:48:16.725Z,6.80
2023-01-30T22:54:11.869Z,6.70
2023-01-30T23:00:07.565Z,6.70
2023-01-30T23:06:26.228Z,6.60
2023-01-30T23:13:03.259Z,6.60
2023-01-30T23:18:58.919Z,6.60
2023-01-30T23:24:53.458Z,6.50
2023-01-30T23:31:13.716Z,6.60
2023-01-30T23:37:51.687Z,6.60
2023-01-30T23:43:46.170Z,6.50
2023-01-30T23:49:40.617Z,6.60
2023-01-30T23:58:01.875Z,6.60
